METAR Data

Data at: 1102 UTC 21 Apr 2021

METAR for:KCQX (Chatham Muni, MA, US)
Text:KCQX 211052Z AUTO 22005KT 10SM CLR 12/09 A2989 RMK AO2 SLP123 T01170089
Temperature: 11.7°C ( 53°F)
Dewpoint: 8.9°C ( 48°F) [RH = 83%]
Pressure (altimeter):29.89 inches Hg (1012.3 mb) [Sea level pressure: 1012.3 mb]
Winds:from the SW (220 degrees) at 6 MPH (5 knots; 2.6 m/s)
Visibility:10 or more sm (16+ km)
Ceiling:at least 12,000 feet AGL
Clouds:sky clear below 12,000 feet AGL
QC Flag:automated observation with no human augmentation